createdAt,value
2023-04-30T00:05:02.354Z,9.07
2023-04-30T00:10:06.367Z,6.90
2023-04-30T00:15:10.707Z,6.97
2023-04-30T00:20:15.845Z,6.17
2023-04-30T00:25:19.174Z,5.10
2023-04-30T00:30:22.508Z,5.40
2023-04-30T00:35:27.151Z,6.67
2023-04-30T00:40:31.688Z,5.20
2023-04-30T00:45:34.893Z,5.43
2023-04-30T00:50:39.811Z,3.30
2023-04-30T00:55:44.452Z,4.03
2023-04-30T01:00:50.959Z,3.73
2023-04-30T01:05:56.653Z,3.10
2023-04-30T01:11:13.919Z,4.13
2023-04-30T01:16:20.845Z,3.50
2023-04-30T01:21:25.744Z,3.20
2023-04-30T01:26:46.797Z,3.13
2023-04-30T01:31:52.242Z,5.73
2023-04-30T01:37:13.615Z,5.67
2023-04-30T01:42:22.927Z,4.10
2023-04-30T01:53:07.940Z,4.13
2023-04-30T01:58:14.625Z,4.23
2023-04-30T02:03:19.415Z,5.63
2023-04-30T02:08:22.703Z,4.30
2023-04-30T02:13:26.264Z,6.10
2023-04-30T02:18:31.077Z,6.37
2023-04-30T02:23:34.627Z,9.47
2023-04-30T02:28:37.805Z,5.00
2023-04-30T02:33:42.393Z,6.00
2023-04-30T02:38:45.714Z,3.83
2023-04-30T02:43:48.788Z,7.10
2023-04-30T02:48:53.864Z,4.53
2023-04-30T02:53:57.329Z,4.13
2023-04-30T02:59:00.841Z,5.57
2023-04-30T03:04:05.961Z,5.63
2023-04-30T03:09:09.503Z,8.73
2023-04-30T03:14:12.836Z,4.60
2023-04-30T03:19:17.668Z,4.13
2023-04-30T03:24:20.842Z,6.80
2023-04-30T03:29:24.033Z,9.60
2023-04-30T03:34:28.929Z,8.43
2023-04-30T03:39:32.221Z,6.90
2023-04-30T03:44:35.809Z,6.33
2023-04-30T03:49:40.474Z,9.33
2023-04-30T03:54:43.578Z,7.17
2023-04-30T03:59:46.773Z,8.30
2023-04-30T04:04:52.697Z,6.70
2023-04-30T04:09:56.246Z,5.87
2023-04-30T04:14:59.615Z,5.17
2023-04-30T04:20:06.218Z,7.73
2023-04-30T04:25:10.588Z,7.77
2023-04-30T04:30:15.241Z,5.33
2023-04-30T04:35:20.789Z,7.40
2023-04-30T04:40:24.187Z,5.50
2023-04-30T04:45:27.403Z,8.23
2023-04-30T04:50:32.376Z,8.30
2023-04-30T04:55:35.974Z,8.30
2023-04-30T05:00:40.450Z,5.33
2023-04-30T05:05:45.147Z,7.93
2023-04-30T05:10:48.595Z,5.30
2023-04-30T05:15:53.934Z,7.07
2023-04-30T05:20:58.607Z,10.30
2023-04-30T05:26:02.471Z,6.37
2023-04-30T05:31:05.916Z,4.90
2023-04-30T05:36:11.341Z,5.88
2023-04-30T05:41:14.546Z,6.45
2023-04-30T05:46:17.832Z,5.65
2023-04-30T05:51:22.427Z,4.85
2023-04-30T05:56:26.297Z,7.65
2023-04-30T06:01:29.669Z,6.97
2023-04-30T06:06:34.518Z,6.07
2023-04-30T06:11:39.018Z,4.93
2023-04-30T06:16:43.826Z,8.45
2023-04-30T06:21:48.857Z,5.68
2023-04-30T06:26:53.147Z,5.05
2023-04-30T06:31:56.757Z,3.58
2023-04-30T06:37:01.691Z,4.82
2023-04-30T06:42:05.324Z,4.53
2023-04-30T06:47:08.456Z,7.75
2023-04-30T06:52:13.400Z,5.40
2023-04-30T06:57:16.751Z,7.05
2023-04-30T07:02:21.990Z,6.47
2023-04-30T07:07:27.341Z,6.38
2023-04-30T07:12:32.133Z,4.78
2023-04-30T07:17:35.406Z,3.88
2023-04-30T07:22:39.960Z,5.30
2023-04-30T07:27:43.331Z,6.47
2023-04-30T07:32:50.368Z,6.95
2023-04-30T07:37:55.556Z,8.82
2023-04-30T07:42:58.814Z,7.15
2023-04-30T07:48:03.253Z,5.53
2023-04-30T07:53:11.144Z,6.72
2023-04-30T07:58:14.401Z,7.75
2023-04-30T08:03:20.157Z,6.03
2023-04-30T08:08:25.037Z,6.47
2023-04-30T08:13:33.807Z,5.93
2023-04-30T08:18:46.847Z,5.20
2023-04-30T08:23:51.631Z,7.47
2023-04-30T08:28:54.875Z,5.90
2023-04-30T08:33:57.970Z,5.25
2023-04-30T08:39:04.399Z,5.50
2023-04-30T08:44:08.676Z,4.10
2023-04-30T08:49:12.370Z,6.70
2023-04-30T08:54:36.824Z,5.05
2023-04-30T08:59:39.961Z,3.33
2023-04-30T09:04:43.431Z,5.43
2023-04-30T09:09:48.221Z,3.13
2023-04-30T09:15:09.676Z,5.18
2023-04-30T09:20:15.108Z,3.88
2023-04-30T09:25:20.515Z,5.63
2023-04-30T09:30:34.939Z,4.03
2023-04-30T09:35:40.335Z,6.22
2023-04-30T09:40:45.340Z,3.83
2023-04-30T09:45:51.590Z,5.22
2023-04-30T09:50:55.481Z,6.15
2023-04-30T09:56:09.483Z,5.60
2023-04-30T10:01:15.702Z,6.15
2023-04-30T10:06:23.246Z,3.85
2023-04-30T10:11:35.939Z,4.60
2023-04-30T10:16:49.132Z,3.67
2023-04-30T10:21:53.101Z,5.78
2023-04-30T10:27:05.872Z,3.70
2023-04-30T10:32:10.057Z,5.85
2023-04-30T10:37:22.385Z,4.45
2023-04-30T10:42:32.084Z,4.60
2023-04-30T10:47:36.645Z,5.22
2023-04-30T10:52:40.444Z,5.85
2023-04-30T10:57:50.089Z,3.17
2023-04-30T11:02:58.493Z,4.47
2023-04-30T11:08:02.546Z,9.45
2023-04-30T11:13:10.746Z,4.72
2023-04-30T11:18:15.477Z,3.75
2023-04-30T11:23:32.185Z,5.38
2023-04-30T11:28:58.628Z,4.18
2023-04-30T11:34:04.047Z,5.18
2023-04-30T11:39:09.623Z,4.47
2023-04-30T11:44:29.827Z,4.90
2023-04-30T11:49:45.634Z,4.13
2023-04-30T11:54:48.813Z,5.97
2023-04-30T11:59:53.951Z,3.30
2023-04-30T12:04:57.615Z,4.70
2023-04-30T12:10:01.736Z,4.40
2023-04-30T12:15:15.039Z,3.47
2023-04-30T12:20:19.742Z,5.78
2023-04-30T12:25:24.167Z,4.68
2023-04-30T12:30:28.835Z,4.68
2023-04-30T12:35:32.849Z,4.40
2023-04-30T12:40:37.094Z,2.75
2023-04-30T12:45:51.602Z,5.97
2023-04-30T12:50:56.880Z,4.55
2023-04-30T12:56:10.685Z,3.45
2023-04-30T13:01:18.402Z,5.15
2023-04-30T13:06:23.139Z,2.97
2023-04-30T13:11:28.060Z,4.75
2023-04-30T13:16:33.137Z,3.35
2023-04-30T13:21:36.619Z,3.20
2023-04-30T13:26:42.832Z,6.65
2023-04-30T13:31:56.386Z,5.20
2023-04-30T13:36:59.705Z,5.13
2023-04-30T13:42:03.010Z,5.45
2023-04-30T13:47:09.972Z,5.88
2023-04-30T13:52:13.302Z,7.47
2023-04-30T13:57:16.451Z,6.72
2023-04-30T14:02:21.315Z,4.25
2023-04-30T14:07:25.626Z,3.42
2023-04-30T14:12:30.635Z,5.60
2023-04-30T14:17:35.801Z,4.00
2023-04-30T14:22:39.560Z,5.88
2023-04-30T14:27:43.677Z,7.00
2023-04-30T14:32:48.785Z,4.68
2023-04-30T14:37:54.819Z,6.18
2023-04-30T14:42:57.977Z,5.97
2023-04-30T14:48:05.287Z,5.00
2023-04-30T14:53:09.574Z,6.00
2023-04-30T14:58:17.071Z,4.10
2023-04-30T15:03:22.206Z,4.15
2023-04-30T15:08:29.551Z,6.75
2023-04-30T15:13:33.049Z,3.67
2023-04-30T15:18:37.710Z,4.07
2023-04-30T15:23:41.188Z,3.35
2023-04-30T15:28:45.507Z,2.60
2023-04-30T15:33:50.260Z,4.72
2023-04-30T15:38:53.805Z,4.45
2023-04-30T15:43:57.029Z,4.32
2023-04-30T15:49:03.567Z,5.85
2023-04-30T15:54:10.952Z,4.13
2023-04-30T15:59:17.735Z,4.05
2023-04-30T16:04:24.354Z,6.13
2023-04-30T16:09:27.722Z,6.00
2023-04-30T16:14:32.868Z,3.92
2023-04-30T16:19:37.917Z,4.40
2023-04-30T16:24:42.251Z,5.07
2023-04-30T16:29:45.673Z,2.65
2023-04-30T16:34:51.596Z,4.32
2023-04-30T16:39:55.195Z,4.90
2023-04-30T16:44:59.069Z,5.72
2023-04-30T16:50:03.958Z,5.20
2023-04-30T16:55:10.554Z,6.22
2023-04-30T17:00:16.909Z,5.05
2023-04-30T17:05:21.859Z,4.78
2023-04-30T17:10:26.092Z,3.78
2023-04-30T17:15:29.715Z,7.18
2023-04-30T17:20:34.758Z,2.45
2023-04-30T17:25:38.563Z,4.13
2023-04-30T17:30:44.380Z,3.17
2023-04-30T17:35:49.066Z,2.45
2023-04-30T17:40:53.746Z,5.25
2023-04-30T17:45:57.557Z,3.53
2023-04-30T17:51:12.118Z,6.25
2023-04-30T17:56:15.286Z,6.50
2023-04-30T18:01:26.409Z,6.32
2023-04-30T18:06:34.112Z,8.18
2023-04-30T18:11:37.320Z,5.32
2023-04-30T18:16:41.271Z,4.45
2023-04-30T18:21:46.576Z,3.15
2023-04-30T18:26:49.872Z,4.97
2023-04-30T18:31:53.260Z,5.68
2023-04-30T18:36:58.182Z,3.10
2023-04-30T18:42:01.742Z,5.93
2023-04-30T18:47:06.816Z,5.63
2023-04-30T18:52:11.518Z,5.47
2023-04-30T18:57:16.514Z,10.75
2023-04-30T19:02:22.522Z,20.20
2023-04-30T19:07:27.724Z,7.83
2023-04-30T19:12:31.093Z,6.80
2023-04-30T19:17:35.311Z,7.07
2023-04-30T19:22:40.747Z,8.23
2023-04-30T19:27:44.258Z,7.80
2023-04-30T19:32:49.793Z,20.73
2023-04-30T19:37:54.510Z,9.93
2023-04-30T19:42:58.627Z,10.20
2023-04-30T19:48:02.996Z,10.63
2023-04-30T19:53:08.227Z,12.13
2023-04-30T19:58:11.711Z,12.40
2023-04-30T20:03:17.175Z,11.33
2023-04-30T20:08:22.440Z,12.80
2023-04-30T20:13:25.823Z,12.27
2023-04-30T20:18:29.249Z,9.97
2023-04-30T20:23:34.286Z,11.80
2023-04-30T20:28:38.506Z,11.57
2023-04-30T20:33:42.976Z,11.57
2023-04-30T20:38:48.216Z,8.57
2023-04-30T20:43:52.406Z,8.50
2023-04-30T20:49:04.096Z,8.20
2023-04-30T20:54:09.608Z,6.87
2023-04-30T20:59:13.453Z,6.20
2023-04-30T21:04:16.918Z,10.17
2023-04-30T21:09:22.295Z,13.23
2023-04-30T21:14:26.125Z,18.37
2023-04-30T21:19:29.345Z,16.90
2023-04-30T21:24:33.934Z,13.43
2023-04-30T21:29:38.303Z,11.13
2023-04-30T21:34:41.875Z,13.13
2023-04-30T21:39:50.069Z,12.13
2023-04-30T21:44:54.304Z,9.70
2023-04-30T21:49:58.842Z,8.07
2023-04-30T21:55:03.646Z,10.00
2023-04-30T22:00:08.933Z,9.20
2023-04-30T22:05:13.708Z,9.47
2023-04-30T22:10:18.444Z,7.63
2023-04-30T22:15:22.302Z,6.80
2023-04-30T22:20:25.475Z,6.93
2023-04-30T22:25:30.063Z,8.83
2023-04-30T22:30:51.784Z,7.80
2023-04-30T22:35:55.591Z,8.00
2023-04-30T22:41:01.266Z,7.83
2023-04-30T22:46:04.729Z,7.67
2023-04-30T22:51:07.956Z,6.07
2023-04-30T22:56:13.083Z,10.90
2023-04-30T23:01:16.891Z,6.20
2023-04-30T23:06:20.611Z,6.40
2023-04-30T23:11:26.164Z,7.80
2023-04-30T23:16:29.531Z,6.07
2023-04-30T23:21:33.940Z,10.20
2023-04-30T23:26:38.612Z,6.87
2023-04-30T23:31:41.992Z,5.63
2023-04-30T23:36:45.188Z,6.33
2023-04-30T23:41:49.755Z,9.23
2023-04-30T23:46:53.236Z,8.20
2023-04-30T23:51:56.708Z,8.37
2023-04-30T23:57:01.951Z,7.13
